createdAt,value
2019-03-20T00:02:19.139Z,99.90
2019-03-20T00:04:49.979Z,99.90
2019-03-20T00:07:14.054Z,99.90
2019-03-20T00:09:40.636Z,99.90
2019-03-20T00:12:07.434Z,99.90
2019-03-20T00:14:34.277Z,99.90
2019-03-20T00:17:01.120Z,99.90
2019-03-20T00:19:27.964Z,99.90
2019-03-20T00:21:54.812Z,99.90
2019-03-20T00:24:21.650Z,99.90
2019-03-20T00:26:48.540Z,99.90
2019-03-20T00:29:15.337Z,99.90
2019-03-20T00:31:42.183Z,99.90
2019-03-20T00:34:09.024Z,99.90
2019-03-20T00:36:35.867Z,99.90
2019-03-20T00:39:03.021Z,99.90
2019-03-20T00:41:29.600Z,99.90
2019-03-20T00:43:56.397Z,99.90
2019-03-20T00:46:23.241Z,99.90
2019-03-20T00:48:49.824Z,99.90
2019-03-20T00:51:16.620Z,99.90
2019-03-20T00:53:43.464Z,99.90
2019-03-20T00:56:10.309Z,99.90
2019-03-20T00:58:39.577Z,99.90
2019-03-20T01:01:05.229Z,99.90
2019-03-20T01:03:31.804Z,99.90
2019-03-20T01:05:58.605Z,99.90
2019-03-20T01:08:25.466Z,99.90
2019-03-20T01:10:52.291Z,99.90
2019-03-20T01:13:19.134Z,99.90
2019-03-20T01:15:45.978Z,99.90
2019-03-20T01:18:12.821Z,99.90
2019-03-20T01:20:39.662Z,99.90
2019-03-20T01:23:06.512Z,99.90
2019-03-20T01:25:35.174Z,99.90
2019-03-20T01:28:01.730Z,99.90
2019-03-20T01:30:38.139Z,99.90
2019-03-20T01:33:06.171Z,99.90
2019-03-20T01:35:32.846Z,99.90
2019-03-20T01:37:59.549Z,99.90
2019-03-20T01:40:26.397Z,99.90
2019-03-20T01:42:52.975Z,99.90
2019-03-20T01:45:19.771Z,99.90
2019-03-20T01:47:46.616Z,99.90
2019-03-20T01:50:13.197Z,99.90
2019-03-20T01:52:39.993Z,99.90
2019-03-20T01:55:07.144Z,99.90
2019-03-20T01:57:33.723Z,99.90
2019-03-20T02:00:00.358Z,99.90
2019-03-20T02:02:27.059Z,99.90
2019-03-20T02:04:53.641Z,99.90
2019-03-20T02:07:20.175Z,99.90
2019-03-20T02:09:46.715Z,99.90
2019-03-20T02:12:13.511Z,99.90
2019-03-20T02:14:40.095Z,99.90
2019-03-20T02:17:06.896Z,99.90
2019-03-20T02:19:33.735Z,99.90
2019-03-20T02:22:00.578Z,99.90
2019-03-20T02:24:27.421Z,99.90
2019-03-20T02:26:54.266Z,99.90
2019-03-20T02:29:20.845Z,99.90
2019-03-20T02:31:47.648Z,99.90
2019-03-20T02:34:14.488Z,99.90
2019-03-20T02:36:41.069Z,99.90
2019-03-20T02:39:07.872Z,99.90
2019-03-20T02:41:34.711Z,99.90
2019-03-20T02:44:01.868Z,99.90
2019-03-20T02:46:28.398Z,99.90
2019-03-20T02:48:55.241Z,99.90
2019-03-20T02:51:21.827Z,99.90
2019-03-20T02:53:48.625Z,99.90
2019-03-20T02:56:15.468Z,99.90
2019-03-20T02:58:42.045Z,99.90
2019-03-20T03:01:08.895Z,99.90
2019-03-20T03:03:35.687Z,99.90
2019-03-20T03:06:07.369Z,99.90
2019-03-20T03:08:30.603Z,99.90
2019-03-20T03:10:57.447Z,99.90
2019-03-20T03:13:24.290Z,99.90
2019-03-20T03:15:51.135Z,99.90
2019-03-20T03:18:17.978Z,99.90
2019-03-20T03:20:44.819Z,99.90
2019-03-20T03:23:11.664Z,99.90
2019-03-20T03:25:38.507Z,99.90
2019-03-20T03:28:05.349Z,99.90
2019-03-20T03:30:32.194Z,99.90
2019-03-20T03:32:58.781Z,99.90
2019-03-20T03:35:25.588Z,99.90
2019-03-20T03:37:52.430Z,99.90
2019-03-20T03:40:19.880Z,99.90
2019-03-20T03:42:46.720Z,99.90
2019-03-20T03:45:14.120Z,99.90
2019-03-20T03:47:40.713Z,99.90
2019-03-20T03:50:08.171Z,99.90
2019-03-20T03:52:34.754Z,99.90
2019-03-20T03:55:01.571Z,99.90
2019-03-20T03:57:28.392Z,99.90
2019-03-20T03:59:55.280Z,99.90
2019-03-20T04:02:22.083Z,99.90
2019-03-20T04:04:48.924Z,99.90
2019-03-20T04:07:15.778Z,99.90
2019-03-20T04:09:42.612Z,99.90
2019-03-20T04:12:09.193Z,99.90
2019-03-20T04:14:35.990Z,99.90
2019-03-20T04:17:04.675Z,99.90
2019-03-20T04:19:31.256Z,99.90
2019-03-20T04:21:58.054Z,99.90
2019-03-20T04:24:24.902Z,99.90
2019-03-20T04:26:51.747Z,99.90
2019-03-20T04:29:18.586Z,99.90
2019-03-20T04:31:45.432Z,99.90
2019-03-20T04:34:12.275Z,99.90
2019-03-20T04:36:47.679Z,99.90
2019-03-20T04:39:07.496Z,99.90
2019-03-20T04:41:34.337Z,99.90
2019-03-20T04:44:01.181Z,99.90
2019-03-20T04:46:27.761Z,99.90
2019-03-20T04:48:54.562Z,99.90
2019-03-20T04:51:21.404Z,99.90
2019-03-20T04:53:48.247Z,99.90
2019-03-20T04:56:15.091Z,99.90
2019-03-20T04:58:41.935Z,99.90
2019-03-20T05:01:08.778Z,99.90
2019-03-20T05:03:35.620Z,99.90
2019-03-20T05:06:02.465Z,99.90
2019-03-20T05:08:29.046Z,99.90
2019-03-20T05:10:55.581Z,99.90
2019-03-20T05:13:22.120Z,99.90
2019-03-20T05:15:48.916Z,99.90
2019-03-20T05:18:15.496Z,99.90
2019-03-20T05:20:42.296Z,99.90
2019-03-20T05:23:09.139Z,99.90
2019-03-20T05:25:37.184Z,99.90
2019-03-20T05:28:04.055Z,99.90
2019-03-20T05:30:30.695Z,99.90
2019-03-20T05:32:57.437Z,99.90
2019-03-20T05:35:24.019Z,99.90
2019-03-20T05:37:50.553Z,99.90
2019-03-20T05:40:17.657Z,99.90
2019-03-20T05:42:44.500Z,99.90
2019-03-20T05:45:12.266Z,99.90
2019-03-20T05:47:39.113Z,99.90
2019-03-20T05:50:07.489Z,99.90
2019-03-20T05:52:34.335Z,99.90
2019-03-20T05:55:01.182Z,99.90
2019-03-20T05:57:28.018Z,99.90
2019-03-20T05:59:54.862Z,99.90
2019-03-20T06:02:21.705Z,99.90
2019-03-20T06:04:48.548Z,99.90
2019-03-20T06:07:21.681Z,99.90
2019-03-20T06:09:43.772Z,99.90
2019-03-20T06:12:10.618Z,99.90
2019-03-20T06:14:37.461Z,99.90
2019-03-20T06:17:04.302Z,99.90
2019-03-20T06:19:31.145Z,99.90
2019-03-20T06:21:57.728Z,99.90
2019-03-20T06:24:24.525Z,99.90
2019-03-20T06:26:51.368Z,99.90
2019-03-20T06:29:20.065Z,99.90
2019-03-20T06:31:46.284Z,99.90
2019-03-20T06:34:12.867Z,99.90
2019-03-20T06:36:39.724Z,99.90
2019-03-20T06:39:07.123Z,99.90
2019-03-20T06:41:33.964Z,99.90
2019-03-20T06:44:00.810Z,99.90
2019-03-20T06:46:27.653Z,99.90
2019-03-20T06:48:54.494Z,99.90
2019-03-20T06:51:21.338Z,99.90
2019-03-20T06:53:48.182Z,99.90
2019-03-20T06:56:15.025Z,99.90
2019-03-20T06:58:41.867Z,99.90
2019-03-20T07:01:10.555Z,99.90
2019-03-20T07:03:42.005Z,99.90
2019-03-20T07:06:10.385Z,99.90
2019-03-20T07:08:39.072Z,99.90
2019-03-20T07:11:05.961Z,99.90
2019-03-20T07:13:32.760Z,99.90
2019-03-20T07:15:59.601Z,99.90
2019-03-20T07:18:26.446Z,99.90
2019-03-20T07:20:53.289Z,99.90
2019-03-20T07:23:20.132Z,99.90
2019-03-20T07:25:46.711Z,99.90
2019-03-20T07:28:13.512Z,99.90
2019-03-20T07:30:40.355Z,99.90
2019-03-20T07:33:07.199Z,99.90
2019-03-20T07:35:34.041Z,99.90
2019-03-20T07:38:00.885Z,99.90
2019-03-20T07:40:27.738Z,99.90
2019-03-20T07:42:54.573Z,99.90
2019-03-20T07:45:21.415Z,99.90
2019-03-20T07:47:47.997Z,99.90
2019-03-20T07:50:14.795Z,99.90
2019-03-20T07:52:41.638Z,99.90
2019-03-20T07:55:08.484Z,99.90
2019-03-20T07:57:35.325Z,99.90
2019-03-20T08:00:02.168Z,99.90
2019-03-20T08:02:29.012Z,99.90
2019-03-20T08:04:55.592Z,99.90
2019-03-20T08:07:22.396Z,99.90
2019-03-20T08:09:49.236Z,99.90
2019-03-20T08:12:16.080Z,99.90
2019-03-20T08:14:42.921Z,99.90
2019-03-20T08:17:09.768Z,99.90
2019-03-20T08:19:36.610Z,99.90
2019-03-20T08:22:03.451Z,99.90
2019-03-20T08:24:30.295Z,99.90
2019-03-20T08:26:57.138Z,99.90
2019-03-20T08:29:23.984Z,99.90
2019-03-20T08:31:50.564Z,99.90
2019-03-20T08:34:17.363Z,99.90
2019-03-20T08:36:44.205Z,99.90
2019-03-20T08:39:11.050Z,99.90
2019-03-20T08:41:37.899Z,99.90
2019-03-20T08:44:04.741Z,99.90
2019-03-20T08:46:31.351Z,99.90
2019-03-20T08:48:58.163Z,99.90
2019-03-20T08:51:24.960Z,99.90
2019-03-20T08:53:51.805Z,99.90
2019-03-20T08:56:20.187Z,99.90
2019-03-20T08:58:47.034Z,99.90
2019-03-20T09:01:13.875Z,99.50
2019-03-20T09:03:40.711Z,99.50
2019-03-20T09:06:07.292Z,99.50
2019-03-20T09:08:34.090Z,99.30
2019-03-20T09:11:00.941Z,98.80
2019-03-20T09:13:27.776Z,97.50
2019-03-20T09:15:54.619Z,94.40
2019-03-20T09:18:21.464Z,94.00
2019-03-20T09:20:48.307Z,95.30
2019-03-20T09:23:15.151Z,96.20
2019-03-20T09:25:41.998Z,95.50
2019-03-20T09:28:08.838Z,93.20
2019-03-20T09:30:35.683Z,93.60
2019-03-20T09:33:02.525Z,91.80
2019-03-20T09:35:29.106Z,91.00
2019-03-20T09:37:55.642Z,91.90
2019-03-20T09:40:23.757Z,91.60
2019-03-20T09:42:50.827Z,90.90
2019-03-20T09:45:20.735Z,90.20
2019-03-20T09:47:47.270Z,87.90
2019-03-20T09:50:17.436Z,87.00
2019-03-20T09:52:44.031Z,85.60
2019-03-20T09:55:11.795Z,87.00
2019-03-20T09:57:38.661Z,87.70
2019-03-20T10:00:07.019Z,84.80
2019-03-20T10:02:33.862Z,82.30
2019-03-20T10:05:00.703Z,82.80
2019-03-20T10:07:27.547Z,82.00
2019-03-20T10:09:54.390Z,85.50
2019-03-20T10:12:21.241Z,82.60
2019-03-20T10:14:48.083Z,80.70
2019-03-20T10:17:17.167Z,82.60
2019-03-20T10:19:43.306Z,85.20
2019-03-20T10:22:10.143Z,82.10
2019-03-20T10:24:36.987Z,84.80
2019-03-20T10:27:03.842Z,80.80
2019-03-20T10:29:30.679Z,79.60
2019-03-20T10:31:57.256Z,76.50
2019-03-20T10:34:24.052Z,75.40
2019-03-20T10:36:50.894Z,76.40
2019-03-20T10:39:17.740Z,76.10
2019-03-20T10:41:44.582Z,77.30
2019-03-20T10:44:11.425Z,76.30
2019-03-20T10:46:38.271Z,75.60
2019-03-20T10:49:05.112Z,73.50
2019-03-20T10:51:31.960Z,73.70
2019-03-20T10:53:58.799Z,74.20
2019-03-20T10:56:25.385Z,73.00
2019-03-20T10:58:52.178Z,72.20
2019-03-20T11:01:19.024Z,73.30
2019-03-20T11:03:45.867Z,74.00
2019-03-20T11:06:12.708Z,75.20
2019-03-20T11:08:39.552Z,73.40
2019-03-20T11:11:06.407Z,70.40
2019-03-20T11:13:33.245Z,70.00
2019-03-20T11:16:00.128Z,70.00
2019-03-20T11:18:26.925Z,70.30
2019-03-20T11:20:53.831Z,70.70
2019-03-20T11:23:20.352Z,69.50
2019-03-20T11:25:47.147Z,69.50
2019-03-20T11:28:13.992Z,68.10
2019-03-20T11:30:40.838Z,68.30
2019-03-20T11:33:07.679Z,67.30
2019-03-20T11:35:34.521Z,62.40
2019-03-20T11:38:01.104Z,63.80
2019-03-20T11:40:31.476Z,63.80
2019-03-20T11:42:58.123Z,59.50
2019-03-20T11:45:24.967Z,59.10
2019-03-20T11:47:51.548Z,60.20
2019-03-20T11:50:22.918Z,59.60
2019-03-20T11:52:49.491Z,58.80
2019-03-20T11:55:16.073Z,56.50
2019-03-20T11:57:42.636Z,58.30
2019-03-20T12:00:16.472Z,58.80
2019-03-20T12:02:43.317Z,56.70
2019-03-20T12:05:10.160Z,58.50
2019-03-20T12:07:36.766Z,54.20
2019-03-20T12:10:08.204Z,54.80
2019-03-20T12:12:34.990Z,56.20
2019-03-20T12:15:01.835Z,55.30
2019-03-20T12:17:28.417Z,54.50
2019-03-20T12:19:55.212Z,55.50
2019-03-20T12:22:22.056Z,53.00
2019-03-20T12:24:48.640Z,53.30
2019-03-20T12:27:15.662Z,50.90
2019-03-20T12:29:42.588Z,52.30
2019-03-20T12:32:09.430Z,52.50
2019-03-20T12:34:36.273Z,50.60
2019-03-20T12:37:02.852Z,50.00
2019-03-20T12:39:29.653Z,50.40
2019-03-20T12:41:56.496Z,49.00
2019-03-20T12:44:23.340Z,47.50
2019-03-20T12:46:50.183Z,49.10
2019-03-20T12:49:17.027Z,49.60
2019-03-20T12:51:43.883Z,49.00
2019-03-20T12:54:10.714Z,49.00
2019-03-20T12:56:37.556Z,48.50
2019-03-20T12:59:04.399Z,47.30
2019-03-20T13:01:30.980Z,47.40
2019-03-20T13:03:57.779Z,45.90
2019-03-20T13:06:24.625Z,46.20
2019-03-20T13:08:51.470Z,48.10
2019-03-20T13:11:18.313Z,46.90
2019-03-20T13:13:45.154Z,47.80
2019-03-20T13:16:11.996Z,45.90
2019-03-20T13:18:38.583Z,43.60
2019-03-20T13:21:05.374Z,46.70
2019-03-20T13:23:33.448Z,45.10
2019-03-20T13:26:00.917Z,45.40
2019-03-20T13:28:27.754Z,44.00
2019-03-20T13:30:56.129Z,42.00
2019-03-20T13:33:25.870Z,43.30
2019-03-20T13:35:51.043Z,43.50
2019-03-20T13:38:17.886Z,44.30
2019-03-20T13:40:44.473Z,42.90
2019-03-20T13:43:11.267Z,44.20
2019-03-20T13:45:38.109Z,42.50
2019-03-20T13:48:04.955Z,42.10
2019-03-20T13:50:31.488Z,41.90
2019-03-20T13:52:58.332Z,42.70
2019-03-20T13:55:25.176Z,41.40
2019-03-20T13:57:52.019Z,41.50
2019-03-20T14:00:19.524Z,41.90
2019-03-20T14:02:46.322Z,42.60
2019-03-20T14:05:13.167Z,41.80
2019-03-20T14:07:39.748Z,43.50
2019-03-20T14:10:08.389Z,40.90
2019-03-20T14:12:35.236Z,38.40
2019-03-20T14:15:02.073Z,39.80
2019-03-20T14:17:28.918Z,40.40
2019-03-20T14:19:55.501Z,40.30
2019-03-20T14:22:22.298Z,39.80
2019-03-20T14:24:49.145Z,41.40
2019-03-20T14:27:15.984Z,39.50
2019-03-20T14:29:42.827Z,40.70
2019-03-20T14:32:09.670Z,40.10
2019-03-20T14:34:36.253Z,39.40
2019-03-20T14:37:03.048Z,39.70
2019-03-20T14:39:29.893Z,38.40
2019-03-20T14:41:56.736Z,38.90
2019-03-20T14:44:23.272Z,39.60
2019-03-20T14:46:49.808Z,37.40
2019-03-20T14:49:16.651Z,39.30
2019-03-20T14:51:43.496Z,37.40
2019-03-20T14:54:10.338Z,37.70
2019-03-20T14:56:37.181Z,37.30
2019-03-20T14:59:04.025Z,39.80
2019-03-20T15:01:30.869Z,36.90
2019-03-20T15:03:57.711Z,35.90
2019-03-20T15:06:24.555Z,37.00
2019-03-20T15:08:51.398Z,37.70
2019-03-20T15:11:18.241Z,36.90
2019-03-20T15:13:45.084Z,37.90
2019-03-20T15:16:12.235Z,39.20
2019-03-20T15:18:38.815Z,38.80
2019-03-20T15:21:05.615Z,36.10
2019-03-20T15:23:32.196Z,36.50
2019-03-20T15:25:58.994Z,33.30
2019-03-20T15:28:25.590Z,29.60
2019-03-20T15:30:52.373Z,28.20
2019-03-20T15:33:19.219Z,27.20
2019-03-20T15:35:46.060Z,25.70
2019-03-20T15:38:12.904Z,24.80
2019-03-20T15:40:39.747Z,25.30
2019-03-20T15:43:06.591Z,24.40
2019-03-20T15:45:33.437Z,23.30
2019-03-20T15:48:00.280Z,23.80
2019-03-20T15:50:27.475Z,23.50
2019-03-20T15:52:54.271Z,23.30
2019-03-20T15:55:34.018Z,24.30
2019-03-20T15:58:00.598Z,24.50
2019-03-20T16:00:27.405Z,26.00
2019-03-20T16:02:56.083Z,26.10
2019-03-20T16:05:22.665Z,27.60
2019-03-20T16:07:49.201Z,26.60
2019-03-20T16:10:16.966Z,27.80
2019-03-20T16:12:43.764Z,28.20
2019-03-20T16:15:12.188Z,29.80
2019-03-20T16:17:38.724Z,29.10
2019-03-20T16:20:07.060Z,30.00
2019-03-20T16:22:33.902Z,31.80
2019-03-20T16:25:00.745Z,32.20
2019-03-20T16:27:27.588Z,33.00
2019-03-20T16:29:54.435Z,34.60
2019-03-20T16:32:21.282Z,33.40
2019-03-20T16:34:48.119Z,35.20
2019-03-20T16:37:14.963Z,35.30
2019-03-20T16:39:41.805Z,35.30
2019-03-20T16:42:08.650Z,36.10
2019-03-20T16:44:35.492Z,37.30
2019-03-20T16:47:02.073Z,36.70
2019-03-20T16:49:28.871Z,36.90
2019-03-20T16:51:55.464Z,37.40
2019-03-20T16:54:22.252Z,37.70
2019-03-20T16:56:49.095Z,38.80
2019-03-20T16:59:15.938Z,39.20
2019-03-20T17:01:42.782Z,38.80
2019-03-20T17:04:09.626Z,39.90
2019-03-20T17:06:36.472Z,40.80
2019-03-20T17:09:04.847Z,40.80
2019-03-20T17:11:38.331Z,41.10
2019-03-20T17:13:59.763Z,41.00
2019-03-20T17:16:26.606Z,41.60
2019-03-20T17:18:53.450Z,41.70
2019-03-20T17:21:20.299Z,42.50
2019-03-20T17:23:46.876Z,42.60
2019-03-20T17:26:13.672Z,43.30
2019-03-20T17:28:40.516Z,43.70
2019-03-20T17:31:07.361Z,43.50
2019-03-20T17:33:34.203Z,44.30
2019-03-20T17:36:01.046Z,44.20
2019-03-20T17:38:27.890Z,45.10
2019-03-20T17:40:54.473Z,45.50
2019-03-20T17:43:21.269Z,45.80
2019-03-20T17:45:47.805Z,46.10
2019-03-20T17:48:14.342Z,46.80
2019-03-20T17:50:40.877Z,48.10
2019-03-20T17:53:07.724Z,48.90
2019-03-20T17:55:34.566Z,49.50
2019-03-20T17:58:01.716Z,49.20
2019-03-20T18:00:37.481Z,50.20
2019-03-20T18:03:04.934Z,50.10
2019-03-20T18:05:31.768Z,50.10
2019-03-20T18:07:58.613Z,50.70
2019-03-20T18:10:25.236Z,50.50
2019-03-20T18:12:51.992Z,50.90
2019-03-20T18:15:18.841Z,51.30
2019-03-20T18:17:45.678Z,51.00
2019-03-20T18:20:13.752Z,51.20
2019-03-20T18:22:40.593Z,51.40
2019-03-20T18:25:08.665Z,51.00
2019-03-20T18:27:35.509Z,50.80
2019-03-20T18:30:03.328Z,50.30
2019-03-20T18:32:29.856Z,50.80
2019-03-20T18:34:56.653Z,52.20
2019-03-20T18:37:23.499Z,50.80
2019-03-20T18:39:50.341Z,51.00
2019-03-20T18:42:17.184Z,51.40
2019-03-20T18:44:44.028Z,51.00
2019-03-20T18:47:10.873Z,51.50
2019-03-20T18:49:37.715Z,51.80
2019-03-20T18:52:04.562Z,51.90
2019-03-20T18:54:31.401Z,51.70
2019-03-20T18:56:58.248Z,52.20
2019-03-20T18:59:25.098Z,52.50
2019-03-20T19:01:51.670Z,52.80
2019-03-20T19:04:18.467Z,52.80
2019-03-20T19:06:45.319Z,52.40
2019-03-20T19:09:12.155Z,52.80
2019-03-20T19:11:38.996Z,52.50
2019-03-20T19:14:05.580Z,53.20
2019-03-20T19:16:32.384Z,54.30
2019-03-20T19:18:59.228Z,53.50
2019-03-20T19:21:26.062Z,53.30
2019-03-20T19:23:52.907Z,53.60
2019-03-20T19:26:19.764Z,53.70
2019-03-20T19:28:46.597Z,54.30
2019-03-20T19:31:13.438Z,54.60
2019-03-20T19:33:40.285Z,55.00
2019-03-20T19:36:07.448Z,55.30
2019-03-20T19:38:35.054Z,55.80
2019-03-20T19:41:02.038Z,57.80
2019-03-20T19:43:28.883Z,57.10
2019-03-20T19:45:55.470Z,59.00
2019-03-20T19:48:22.262Z,59.10
2019-03-20T19:50:48.844Z,59.90
2019-03-20T19:53:15.335Z,60.10
2019-03-20T19:55:41.870Z,60.10
2019-03-20T19:58:08.713Z,60.80
2019-03-20T20:00:35.560Z,61.80
2019-03-20T20:03:02.406Z,61.80
2019-03-20T20:05:29.244Z,63.10
2019-03-20T20:07:56.054Z,62.80
2019-03-20T20:10:22.976Z,63.30
2019-03-20T20:12:49.775Z,64.00
2019-03-20T20:15:27.370Z,64.70
2019-03-20T20:17:54.212Z,63.70
2019-03-20T20:20:30.579Z,65.90
2019-03-20T20:22:57.422Z,66.30
2019-03-20T20:25:24.268Z,67.80
2019-03-20T20:27:50.850Z,68.00
2019-03-20T20:30:18.204Z,69.60
2019-03-20T20:32:44.799Z,70.50
2019-03-20T20:35:12.564Z,71.00
2019-03-20T20:37:39.405Z,71.90
2019-03-20T20:40:10.857Z,73.50
2019-03-20T20:42:42.959Z,71.90
2019-03-20T20:45:06.697Z,73.20
2019-03-20T20:47:33.545Z,74.90
2019-03-20T20:50:00.431Z,75.40
2019-03-20T20:52:27.228Z,77.00
2019-03-20T20:54:54.069Z,77.80
2019-03-20T20:57:20.914Z,78.10
2019-03-20T20:59:47.755Z,78.60
2019-03-20T21:02:15.089Z,80.30
2019-03-20T21:04:41.747Z,80.10
2019-03-20T21:07:08.590Z,77.40
2019-03-20T21:09:35.434Z,77.60
2019-03-20T21:12:02.277Z,80.40
2019-03-20T21:14:30.215Z,80.10
2019-03-20T21:16:56.886Z,80.00
2019-03-20T21:19:33.253Z,81.40
2019-03-20T21:22:20.374Z,82.30
2019-03-20T21:24:47.215Z,82.20
2019-03-20T21:27:15.596Z,82.60
2019-03-20T21:29:59.334Z,84.60
2019-03-20T21:32:30.786Z,83.20
2019-03-20T21:35:15.755Z,84.80
2019-03-20T21:37:44.133Z,86.30
2019-03-20T21:40:11.900Z,87.20
2019-03-20T21:42:40.585Z,87.90
2019-03-20T21:45:25.564Z,88.90
2019-03-20T21:47:52.132Z,88.50
2019-03-20T21:50:20.777Z,89.20
2019-03-20T21:52:47.619Z,89.90
2019-03-20T21:55:18.764Z,90.00
2019-03-20T21:57:47.146Z,90.50
2019-03-20T22:00:24.738Z,91.50
2019-03-20T22:02:51.589Z,91.70
2019-03-20T22:05:25.799Z,92.00
2019-03-20T22:07:53.836Z,92.20
2019-03-20T22:10:25.014Z,92.50
2019-03-20T22:12:53.396Z,93.30
2019-03-20T22:15:27.964Z,92.70
2019-03-20T22:18:02.442Z,92.90
2019-03-20T22:20:33.893Z,93.50
2019-03-20T22:23:02.271Z,93.00
2019-03-20T22:25:33.723Z,93.70
2019-03-20T22:28:02.105Z,94.30
2019-03-20T22:30:28.685Z,95.60
2019-03-20T22:33:09.044Z,95.30
2019-03-20T22:35:37.379Z,96.40
2019-03-20T22:38:05.758Z,96.60
2019-03-20T22:40:34.180Z,95.30
2019-03-20T22:43:02.517Z,96.50
2019-03-20T22:45:47.792Z,97.10
2019-03-20T22:48:25.406Z,97.10
2019-03-20T22:51:05.748Z,97.40
2019-03-20T22:53:37.200Z,98.30
2019-03-20T22:56:14.795Z,98.40
2019-03-20T22:58:42.560Z,98.80
2019-03-20T23:01:10.632Z,98.90
2019-03-20T23:03:39.319Z,99.00
2019-03-20T23:06:06.162Z,99.50
2019-03-20T23:08:33.007Z,99.20
2019-03-20T23:10:59.849Z,99.90
2019-03-20T23:13:26.385Z,99.90
2019-03-20T23:15:52.924Z,99.90
2019-03-20T23:18:19.764Z,99.90
2019-03-20T23:20:46.609Z,99.90
2019-03-20T23:23:13.188Z,99.90
2019-03-20T23:25:39.987Z,99.90
2019-03-20T23:28:06.831Z,99.90
2019-03-20T23:30:33.983Z,99.90
2019-03-20T23:33:00.825Z,99.90
2019-03-20T23:35:27.362Z,99.90
2019-03-20T23:37:54.204Z,99.90
2019-03-20T23:40:21.047Z,99.90
2019-03-20T23:42:49.369Z,99.90
2019-03-20T23:45:17.555Z,99.90
2019-03-20T23:47:52.023Z,99.90
2019-03-20T23:50:18.866Z,99.90
2019-03-20T23:52:45.710Z,99.90
2019-03-20T23:55:12.860Z,99.90
2019-03-20T23:57:39.703Z,99.90
